sensor_id;sensor_type;location;lat;lon;timestamp;P1;durP1;ratioP1;P2;durP2;ratioP2
69434;SDS011;56625;54.322;18.582;2023-04-01T00:01:13;8.60;;;2.80;;
69434;SDS011;56625;54.322;18.582;2023-04-01T00:03:42;6.80;;;2.60;;
69434;SDS011;56625;54.322;18.582;2023-04-01T00:06:16;8.70;;;3.00;;
69434;SDS011;56625;54.322;18.582;2023-04-01T00:08:45;9.40;;;3.10;;
69434;SDS011;56625;54.322;18.582;2023-04-01T00:11:14;8.00;;;3.00;;
69434;SDS011;56625;54.322;18.582;2023-04-01T00:13:43;9.60;;;3.10;;
69434;SDS011;56625;54.322;18.582;2023-04-01T00:16:12;8.30;;;3.10;;
69434;SDS011;56625;54.322;18.582;2023-04-01T00:18:50;11.10;;;4.60;;
69434;SDS011;56625;54.322;18.582;2023-04-01T00:21:19;11.10;;;4.10;;
69434;SDS011;56625;54.322;18.582;2023-04-01T00:23:49;9.50;;;3.30;;
69434;SDS011;56625;54.322;18.582;2023-04-01T00:26:19;7.70;;;2.50;;
69434;SDS011;56625;54.322;18.582;2023-04-01T00:28:49;6.90;;;2.70;;
69434;SDS011;56625;54.322;18.582;2023-04-01T00:31:19;7.20;;;2.60;;
69434;SDS011;56625;54.322;18.582;2023-04-01T00:33:48;6.70;;;2.60;;
69434;SDS011;56625;54.322;18.582;2023-04-01T00:36:19;6.60;;;2.00;;
69434;SDS011;56625;54.322;18.582;2023-04-01T00:38:51;6.00;;;2.00;;
69434;SDS011;56625;54.322;18.582;2023-04-01T00:41:20;4.70;;;1.60;;
69434;SDS011;56625;54.322;18.582;2023-04-01T00:43:50;6.40;;;1.90;;
69434;SDS011;56625;54.322;18.582;2023-04-01T00:46:19;6.30;;;1.90;;
69434;SDS011;56625;54.322;18.582;2023-04-01T00:48:50;6.40;;;2.30;;
69434;SDS011;56625;54.322;18.582;2023-04-01T00:51:24;7.20;;;2.40;;
69434;SDS011;56625;54.322;18.582;2023-04-01T00:53:56;7.20;;;2.60;;
69434;SDS011;56625;54.322;18.582;2023-04-01T00:56:34;8.10;;;2.70;;
69434;SDS011;56625;54.322;18.582;2023-04-01T00:59:17;7.80;;;3.10;;
69434;SDS011;56625;54.322;18.582;2023-04-01T01:01:50;8.90;;;3.30;;
69434;SDS011;56625;54.322;18.582;2023-04-01T01:04:27;8.00;;;3.20;;
69434;SDS011;56625;54.322;18.582;2023-04-01T01:13:48;9.70;;;4.10;;
69434;SDS011;56625;54.322;18.582;2023-04-01T01:16:34;10.10;;;3.90;;
69434;SDS011;56625;54.322;18.582;2023-04-01T01:27:56;10.10;;;4.50;;
69434;SDS011;56625;54.322;18.582;2023-04-01T01:30:42;11.50;;;4.80;;
69434;SDS011;56625;54.322;18.582;2023-04-01T01:36:09;13.50;;;5.90;;
69434;SDS011;56625;54.322;18.582;2023-04-01T01:38:41;12.70;;;5.30;;
69434;SDS011;56625;54.322;18.582;2023-04-01T01:41:10;12.50;;;5.40;;
69434;SDS011;56625;54.322;18.582;2023-04-01T01:43:45;12.50;;;5.20;;
69434;SDS011;56625;54.322;18.582;2023-04-01T01:46:19;10.60;;;5.00;;
69434;SDS011;56625;54.322;18.582;2023-04-01T01:48:50;13.30;;;5.20;;
69434;SDS011;56625;54.322;18.582;2023-04-01T01:51:21;10.80;;;5.50;;
69434;SDS011;56625;54.322;18.582;2023-04-01T01:53:50;14.70;;;6.20;;
69434;SDS011;56625;54.322;18.582;2023-04-01T01:56:19;12.70;;;5.80;;
69434;SDS011;56625;54.322;18.582;2023-04-01T01:58:54;10.90;;;4.50;;
69434;SDS011;56625;54.322;18.582;2023-04-01T02:01:30;11.30;;;5.40;;
69434;SDS011;56625;54.322;18.582;2023-04-01T02:04:02;10.10;;;4.40;;
69434;SDS011;56625;54.322;18.582;2023-04-01T02:06:34;9.80;;;4.60;;
69434;SDS011;56625;54.322;18.582;2023-04-01T02:09:07;8.60;;;4.10;;
69434;SDS011;56625;54.322;18.582;2023-04-01T02:11:57;10.40;;;4.90;;
69434;SDS011;56625;54.322;18.582;2023-04-01T02:14:49;9.20;;;4.50;;
69434;SDS011;56625;54.322;18.582;2023-04-01T02:17:20;8.30;;;3.50;;
69434;SDS011;56625;54.322;18.582;2023-04-01T02:19:54;8.30;;;3.40;;
69434;SDS011;56625;54.322;18.582;2023-04-01T02:22:31;8.70;;;3.90;;
69434;SDS011;56625;54.322;18.582;2023-04-01T02:25:14;8.60;;;3.50;;
69434;SDS011;56625;54.322;18.582;2023-04-01T02:27:46;8.20;;;3.10;;
69434;SDS011;56625;54.322;18.582;2023-04-01T02:30:16;7.20;;;3.20;;
69434;SDS011;56625;54.322;18.582;2023-04-01T02:32:46;7.50;;;3.50;;
69434;SDS011;56625;54.322;18.582;2023-04-01T02:35:16;8.40;;;3.60;;
69434;SDS011;56625;54.322;18.582;2023-04-01T02:37:48;7.60;;;3.50;;
69434;SDS011;56625;54.322;18.582;2023-04-01T02:40:18;8.70;;;4.10;;
69434;SDS011;56625;54.322;18.582;2023-04-01T02:42:46;6.90;;;3.00;;
69434;SDS011;56625;54.322;18.582;2023-04-01T02:45:14;6.20;;;2.70;;
69434;SDS011;56625;54.322;18.582;2023-04-01T02:47:42;6.90;;;3.00;;
69434;SDS011;56625;54.322;18.582;2023-04-01T02:50:10;6.80;;;2.90;;
69434;SDS011;56625;54.322;18.582;2023-04-01T02:52:38;7.60;;;2.90;;
69434;SDS011;56625;54.322;18.582;2023-04-01T02:55:06;7.50;;;4.00;;
69434;SDS011;56625;54.322;18.582;2023-04-01T02:57:34;8.40;;;3.90;;
69434;SDS011;56625;54.322;18.582;2023-04-01T03:00:03;7.90;;;3.50;;
69434;SDS011;56625;54.322;18.582;2023-04-01T03:02:31;7.40;;;3.10;;
69434;SDS011;56625;54.322;18.582;2023-04-01T03:04:59;7.20;;;2.90;;
69434;SDS011;56625;54.322;18.582;2023-04-01T03:07:27;5.90;;;2.40;;
69434;SDS011;56625;54.322;18.582;2023-04-01T03:09:55;5.80;;;2.20;;
69434;SDS011;56625;54.322;18.582;2023-04-01T03:12:22;6.30;;;2.30;;
69434;SDS011;56625;54.322;18.582;2023-04-01T03:14:50;6.20;;;2.40;;
69434;SDS011;56625;54.322;18.582;2023-04-01T03:17:18;6.70;;;2.70;;
69434;SDS011;56625;54.322;18.582;2023-04-01T03:19:46;6.30;;;2.40;;
69434;SDS011;56625;54.322;18.582;2023-04-01T03:22:14;5.70;;;1.90;;
69434;SDS011;56625;54.322;18.582;2023-04-01T03:24:42;6.10;;;2.50;;
69434;SDS011;56625;54.322;18.582;2023-04-01T03:27:09;5.00;;;2.00;;
69434;SDS011;56625;54.322;18.582;2023-04-01T03:29:37;4.80;;;1.60;;
69434;SDS011;56625;54.322;18.582;2023-04-01T03:32:05;5.80;;;2.30;;
69434;SDS011;56625;54.322;18.582;2023-04-01T03:34:36;7.50;;;2.60;;
69434;SDS011;56625;54.322;18.582;2023-04-01T03:37:04;6.30;;;2.50;;
69434;SDS011;56625;54.322;18.582;2023-04-01T03:39:31;5.50;;;2.00;;
69434;SDS011;56625;54.322;18.582;2023-04-01T03:41:59;5.80;;;2.40;;
69434;SDS011;56625;54.322;18.582;2023-04-01T03:44:42;6.50;;;2.40;;
69434;SDS011;56625;54.322;18.582;2023-04-01T03:47:10;5.80;;;2.10;;
69434;SDS011;56625;54.322;18.582;2023-04-01T03:49:38;4.80;;;1.90;;
69434;SDS011;56625;54.322;18.582;2023-04-01T03:52:09;6.10;;;2.50;;
69434;SDS011;56625;54.322;18.582;2023-04-01T03:54:38;5.80;;;2.40;;
69434;SDS011;56625;54.322;18.582;2023-04-01T03:57:06;5.60;;;2.20;;
69434;SDS011;56625;54.322;18.582;2023-04-01T03:59:34;7.10;;;2.70;;
69434;SDS011;56625;54.322;18.582;2023-04-01T04:02:02;6.40;;;2.50;;
69434;SDS011;56625;54.322;18.582;2023-04-01T04:04:30;5.80;;;1.90;;
69434;SDS011;56625;54.322;18.582;2023-04-01T04:06:59;6.20;;;2.30;;
69434;SDS011;56625;54.322;18.582;2023-04-01T04:09:30;6.20;;;2.40;;
69434;SDS011;56625;54.322;18.582;2023-04-01T04:12:00;6.10;;;2.30;;
69434;SDS011;56625;54.322;18.582;2023-04-01T04:14:29;6.40;;;2.40;;
69434;SDS011;56625;54.322;18.582;2023-04-01T04:16:57;6.80;;;2.80;;
69434;SDS011;56625;54.322;18.582;2023-04-01T04:19:25;7.20;;;2.50;;
69434;SDS011;56625;54.322;18.582;2023-04-01T04:21:53;7.10;;;3.00;;
69434;SDS011;56625;54.322;18.582;2023-04-01T04:24:22;8.10;;;3.60;;
69434;SDS011;56625;54.322;18.582;2023-04-01T04:26:50;8.60;;;3.50;;
69434;SDS011;56625;54.322;18.582;2023-04-01T04:29:18;7.90;;;3.20;;
69434;SDS011;56625;54.322;18.582;2023-04-01T04:31:46;7.90;;;3.40;;
69434;SDS011;56625;54.322;18.582;2023-04-01T04:34:14;8.30;;;3.50;;
69434;SDS011;56625;54.322;18.582;2023-04-01T04:36:42;9.00;;;3.90;;
69434;SDS011;56625;54.322;18.582;2023-04-01T04:39:10;9.40;;;4.40;;
69434;SDS011;56625;54.322;18.582;2023-04-01T04:41:38;9.40;;;4.10;;
69434;SDS011;56625;54.322;18.582;2023-04-01T04:44:06;7.60;;;3.50;;
69434;SDS011;56625;54.322;18.582;2023-04-01T04:46:34;8.80;;;3.70;;
69434;SDS011;56625;54.322;18.582;2023-04-01T04:49:05;9.40;;;4.00;;
69434;SDS011;56625;54.322;18.582;2023-04-01T04:51:34;8.20;;;3.80;;
69434;SDS011;56625;54.322;18.582;2023-04-01T04:54:03;7.00;;;2.80;;
69434;SDS011;56625;54.322;18.582;2023-04-01T04:56:32;7.60;;;3.40;;
69434;SDS011;56625;54.322;18.582;2023-04-01T04:59:00;9.70;;;3.70;;
69434;SDS011;56625;54.322;18.582;2023-04-01T05:01:28;8.20;;;3.20;;
69434;SDS011;56625;54.322;18.582;2023-04-01T05:03:56;7.20;;;3.00;;
69434;SDS011;56625;54.322;18.582;2023-04-01T05:06:25;7.60;;;2.60;;
69434;SDS011;56625;54.322;18.582;2023-04-01T05:08:56;8.30;;;2.70;;
69434;SDS011;56625;54.322;18.582;2023-04-01T05:11:25;7.30;;;2.50;;
69434;SDS011;56625;54.322;18.582;2023-04-01T05:13:53;8.50;;;2.50;;
69434;SDS011;56625;54.322;18.582;2023-04-01T05:16:21;8.50;;;2.60;;
69434;SDS011;56625;54.322;18.582;2023-04-01T05:18:49;7.10;;;2.40;;
69434;SDS011;56625;54.322;18.582;2023-04-01T05:21:17;8.40;;;2.50;;
69434;SDS011;56625;54.322;18.582;2023-04-01T05:23:45;8.00;;;2.50;;
69434;SDS011;56625;54.322;18.582;2023-04-01T05:26:14;9.00;;;2.90;;
69434;SDS011;56625;54.322;18.582;2023-04-01T05:28:42;10.50;;;3.30;;
69434;SDS011;56625;54.322;18.582;2023-04-01T05:31:10;9.60;;;3.30;;
69434;SDS011;56625;54.322;18.582;2023-04-01T05:33:38;8.40;;;2.70;;
69434;SDS011;56625;54.322;18.582;2023-04-01T05:36:11;7.20;;;2.20;;
69434;SDS011;56625;54.322;18.582;2023-04-01T05:38:42;8.20;;;2.60;;
69434;SDS011;56625;54.322;18.582;2023-04-01T05:41:14;5.70;;;1.70;;
69434;SDS011;56625;54.322;18.582;2023-04-01T05:43:42;7.10;;;2.00;;
69434;SDS011;56625;54.322;18.582;2023-04-01T05:46:10;6.80;;;2.10;;
69434;SDS011;56625;54.322;18.582;2023-04-01T05:48:39;7.00;;;1.80;;
69434;SDS011;56625;54.322;18.582;2023-04-01T05:51:13;6.10;;;2.00;;
69434;SDS011;56625;54.322;18.582;2023-04-01T05:53:42;7.60;;;2.40;;
69434;SDS011;56625;54.322;18.582;2023-04-01T05:56:10;6.50;;;1.90;;
69434;SDS011;56625;54.322;18.582;2023-04-01T05:58:39;7.00;;;2.00;;
69434;SDS011;56625;54.322;18.582;2023-04-01T06:01:09;7.30;;;2.20;;
69434;SDS011;56625;54.322;18.582;2023-04-01T06:03:43;7.90;;;2.60;;
69434;SDS011;56625;54.322;18.582;2023-04-01T06:06:16;5.20;;;1.30;;
69434;SDS011;56625;54.322;18.582;2023-04-01T06:08:53;5.20;;;1.40;;
69434;SDS011;56625;54.322;18.582;2023-04-01T06:11:37;6.60;;;1.70;;
69434;SDS011;56625;54.322;18.582;2023-04-01T06:17:28;5.50;;;1.50;;
69434;SDS011;56625;54.322;18.582;2023-04-01T06:26:02;5.20;;;1.50;;
69434;SDS011;56625;54.322;18.582;2023-04-01T06:28:46;5.70;;;1.30;;
69434;SDS011;56625;54.322;18.582;2023-04-01T06:36:00;6.30;;;1.60;;
69434;SDS011;56625;54.322;18.582;2023-04-01T06:41:25;3.40;;;0.80;;
69434;SDS011;56625;54.322;18.582;2023-04-01T06:44:43;5.40;;;1.20;;
69434;SDS011;56625;54.322;18.582;2023-04-01T06:47:22;4.20;;;0.90;;
69434;SDS011;56625;54.322;18.582;2023-04-01T06:56:08;4.50;;;1.00;;
69434;SDS011;56625;54.322;18.582;2023-04-01T06:58:51;3.20;;;0.90;;
69434;SDS011;56625;54.322;18.582;2023-04-01T07:01:27;2.70;;;0.50;;
69434;SDS011;56625;54.322;18.582;2023-04-01T07:04:06;3.90;;;0.90;;
69434;SDS011;56625;54.322;18.582;2023-04-01T07:06:45;4.30;;;0.70;;
69434;SDS011;56625;54.322;18.582;2023-04-01T07:09:24;3.00;;;0.70;;
69434;SDS011;56625;54.322;18.582;2023-04-01T07:12:02;3.90;;;0.70;;
69434;SDS011;56625;54.322;18.582;2023-04-01T07:14:40;5.30;;;1.00;;
69434;SDS011;56625;54.322;18.582;2023-04-01T07:17:17;3.40;;;0.60;;
69434;SDS011;56625;54.322;18.582;2023-04-01T07:20:13;3.10;;;0.50;;
69434;SDS011;56625;54.322;18.582;2023-04-01T07:23:00;3.80;;;0.70;;
69434;SDS011;56625;54.322;18.582;2023-04-01T07:25:38;3.90;;;0.70;;
69434;SDS011;56625;54.322;18.582;2023-04-01T07:28:15;2.60;;;0.40;;
69434;SDS011;56625;54.322;18.582;2023-04-01T07:30:50;3.50;;;0.40;;
69434;SDS011;56625;54.322;18.582;2023-04-01T07:33:50;2.40;;;0.30;;
69434;SDS011;56625;54.322;18.582;2023-04-01T07:39:23;2.30;;;0.40;;
69434;SDS011;56625;54.322;18.582;2023-04-01T07:50:29;4.40;;;0.60;;
69434;SDS011;56625;54.322;18.582;2023-04-01T07:53:17;3.60;;;0.60;;
69434;SDS011;56625;54.322;18.582;2023-04-01T07:56:17;2.90;;;0.60;;
69434;SDS011;56625;54.322;18.582;2023-04-01T08:02:02;2.20;;;0.30;;
69434;SDS011;56625;54.322;18.582;2023-04-01T08:05:04;3.30;;;0.50;;
69434;SDS011;56625;54.322;18.582;2023-04-01T08:16:20;4.30;;;0.80;;
69434;SDS011;56625;54.322;18.582;2023-04-01T08:22:21;5.60;;;1.10;;
69434;SDS011;56625;54.322;18.582;2023-04-01T08:24:57;4.90;;;0.90;;
69434;SDS011;56625;54.322;18.582;2023-04-01T08:27:44;3.90;;;0.70;;
69434;SDS011;56625;54.322;18.582;2023-04-01T08:30:19;5.00;;;1.00;;
69434;SDS011;56625;54.322;18.582;2023-04-01T08:32:59;4.20;;;0.90;;
69434;SDS011;56625;54.322;18.582;2023-04-01T08:35:39;4.30;;;0.60;;
69434;SDS011;56625;54.322;18.582;2023-04-01T08:38:40;3.30;;;0.40;;
69434;SDS011;56625;54.322;18.582;2023-04-01T08:56:42;3.30;;;0.60;;
69434;SDS011;56625;54.322;18.582;2023-04-01T09:00:13;3.60;;;0.70;;
69434;SDS011;56625;54.322;18.582;2023-04-01T09:03:08;3.60;;;0.60;;
69434;SDS011;56625;54.322;18.582;2023-04-01T09:27:28;3.10;;;0.60;;
69434;SDS011;56625;54.322;18.582;2023-04-01T09:36:20;2.50;;;0.50;;
69434;SDS011;56625;54.322;18.582;2023-04-01T09:39:19;2.40;;;0.60;;
69434;SDS011;56625;54.322;18.582;2023-04-01T09:42:29;3.70;;;0.40;;
69434;SDS011;56625;54.322;18.582;2023-04-01T09:48:07;3.90;;;0.60;;
69434;SDS011;56625;54.322;18.582;2023-04-01T10:11:14;3.40;;;0.40;;
69434;SDS011;56625;54.322;18.582;2023-04-01T10:20:44;3.20;;;0.30;;
69434;SDS011;56625;54.322;18.582;2023-04-01T10:23:16;2.60;;;0.40;;
69434;SDS011;56625;54.322;18.582;2023-04-01T10:26:10;2.70;;;0.40;;
69434;SDS011;56625;54.322;18.582;2023-04-01T10:48:12;2.60;;;0.40;;
69434;SDS011;56625;54.322;18.582;2023-04-01T10:56:34;3.40;;;0.50;;
69434;SDS011;56625;54.322;18.582;2023-04-01T10:59:20;2.60;;;0.50;;
69434;SDS011;56625;54.322;18.582;2023-04-01T11:05:13;2.50;;;0.30;;
69434;SDS011;56625;54.322;18.582;2023-04-01T11:11:27;3.80;;;0.40;;
69434;SDS011;56625;54.322;18.582;2023-04-01T11:26:41;3.10;;;0.50;;
69434;SDS011;56625;54.322;18.582;2023-04-01T11:29:36;2.90;;;0.50;;
69434;SDS011;56625;54.322;18.582;2023-04-01T11:32:36;4.20;;;0.70;;
69434;SDS011;56625;54.322;18.582;2023-04-01T11:35:39;3.20;;;0.60;;
69434;SDS011;56625;54.322;18.582;2023-04-01T11:39:01;2.10;;;0.40;;
69434;SDS011;56625;54.322;18.582;2023-04-01T11:41:48;3.60;;;0.60;;
69434;SDS011;56625;54.322;18.582;2023-04-01T11:44:24;2.80;;;0.40;;
69434;SDS011;56625;54.322;18.582;2023-04-01T11:53:13;3.70;;;0.40;;
69434;SDS011;56625;54.322;18.582;2023-04-01T12:10:02;2.70;;;0.50;;
69434;SDS011;56625;54.322;18.582;2023-04-01T12:18:49;3.30;;;0.50;;
69434;SDS011;56625;54.322;18.582;2023-04-01T12:21:36;3.80;;;0.60;;
69434;SDS011;56625;54.322;18.582;2023-04-01T12:27:06;2.60;;;0.20;;
69434;SDS011;56625;54.322;18.582;2023-04-01T12:36:30;3.40;;;0.50;;
69434;SDS011;56625;54.322;18.582;2023-04-01T12:39:35;2.90;;;0.50;;
69434;SDS011;56625;54.322;18.582;2023-04-01T12:42:46;3.20;;;0.40;;
69434;SDS011;56625;54.322;18.582;2023-04-01T12:45:57;3.00;;;0.60;;
69434;SDS011;56625;54.322;18.582;2023-04-01T12:48:49;3.10;;;0.90;;
69434;SDS011;56625;54.322;18.582;2023-04-01T12:57:10;3.40;;;0.80;;
69434;SDS011;56625;54.322;18.582;2023-04-01T13:00:25;2.40;;;0.50;;
69434;SDS011;56625;54.322;18.582;2023-04-01T13:06:33;2.60;;;0.40;;
69434;SDS011;56625;54.322;18.582;2023-04-01T13:09:29;2.20;;;0.40;;
69434;SDS011;56625;54.322;18.582;2023-04-01T13:12:23;2.50;;;0.60;;
69434;SDS011;56625;54.322;18.582;2023-04-01T13:15:35;2.70;;;0.50;;
69434;SDS011;56625;54.322;18.582;2023-04-01T13:18:20;3.40;;;1.20;;
69434;SDS011;56625;54.322;18.582;2023-04-01T13:41:43;2.70;;;0.50;;
69434;SDS011;56625;54.322;18.582;2023-04-01T13:47:41;2.20;;;0.40;;
69434;SDS011;56625;54.322;18.582;2023-04-01T13:53:15;3.70;;;0.70;;
69434;SDS011;56625;54.322;18.582;2023-04-01T13:59:37;3.50;;;0.90;;
69434;SDS011;56625;54.322;18.582;2023-04-01T14:09:21;3.00;;;0.80;;
69434;SDS011;56625;54.322;18.582;2023-04-01T14:11:50;3.60;;;0.70;;
69434;SDS011;56625;54.322;18.582;2023-04-01T14:26:40;4.60;;;0.70;;
69434;SDS011;56625;54.322;18.582;2023-04-01T14:35:23;5.50;;;1.40;;
69434;SDS011;56625;54.322;18.582;2023-04-01T14:44:15;4.80;;;1.00;;
69434;SDS011;56625;54.322;18.582;2023-04-01T14:47:53;4.90;;;1.00;;
69434;SDS011;56625;54.322;18.582;2023-04-01T14:50:21;3.80;;;0.80;;
69434;SDS011;56625;54.322;18.582;2023-04-01T14:53:13;4.40;;;0.80;;
69434;SDS011;56625;54.322;18.582;2023-04-01T14:55:58;4.50;;;1.10;;
69434;SDS011;56625;54.322;18.582;2023-04-01T14:58:50;4.90;;;1.40;;
69434;SDS011;56625;54.322;18.582;2023-04-01T15:04:29;6.60;;;1.70;;
69434;SDS011;56625;54.322;18.582;2023-04-01T15:07:41;7.90;;;1.60;;
69434;SDS011;56625;54.322;18.582;2023-04-01T15:10:46;5.90;;;1.60;;
69434;SDS011;56625;54.322;18.582;2023-04-01T15:16:08;6.10;;;1.50;;
69434;SDS011;56625;54.322;18.582;2023-04-01T15:22:03;7.70;;;2.00;;
69434;SDS011;56625;54.322;18.582;2023-04-01T15:28:06;6.10;;;1.70;;
69434;SDS011;56625;54.322;18.582;2023-04-01T15:34:51;7.80;;;2.10;;
69434;SDS011;56625;54.322;18.582;2023-04-01T15:37:43;8.30;;;2.00;;
69434;SDS011;56625;54.322;18.582;2023-04-01T15:40:42;6.40;;;2.20;;
69434;SDS011;56625;54.322;18.582;2023-04-01T15:46:11;7.90;;;2.30;;
69434;SDS011;56625;54.322;18.582;2023-04-01T15:54:52;6.90;;;1.60;;
69434;SDS011;56625;54.322;18.582;2023-04-01T15:58:01;7.90;;;2.50;;
69434;SDS011;56625;54.322;18.582;2023-04-01T16:00:49;8.40;;;1.80;;
69434;SDS011;56625;54.322;18.582;2023-04-01T16:03:37;9.00;;;2.50;;
69434;SDS011;56625;54.322;18.582;2023-04-01T16:12:19;7.80;;;1.80;;
69434;SDS011;56625;54.322;18.582;2023-04-01T16:15:44;12.20;;;2.90;;
69434;SDS011;56625;54.322;18.582;2023-04-01T16:18:57;10.80;;;2.70;;
69434;SDS011;56625;54.322;18.582;2023-04-01T16:21:59;6.80;;;2.10;;
69434;SDS011;56625;54.322;18.582;2023-04-01T16:24:46;7.10;;;2.40;;
69434;SDS011;56625;54.322;18.582;2023-04-01T16:29:57;9.10;;;2.50;;
69434;SDS011;56625;54.322;18.582;2023-04-01T16:32:51;7.10;;;2.00;;
69434;SDS011;56625;54.322;18.582;2023-04-01T16:35:46;8.00;;;2.20;;
69434;SDS011;56625;54.322;18.582;2023-04-01T16:38:50;6.40;;;1.90;;
69434;SDS011;56625;54.322;18.582;2023-04-01T16:41:32;8.60;;;2.30;;
69434;SDS011;56625;54.322;18.582;2023-04-01T16:44:20;10.50;;;2.70;;
69434;SDS011;56625;54.322;18.582;2023-04-01T16:46:56;7.10;;;2.40;;
69434;SDS011;56625;54.322;18.582;2023-04-01T16:49:37;8.10;;;2.20;;
69434;SDS011;56625;54.322;18.582;2023-04-01T16:53:14;11.40;;;2.70;;
69434;SDS011;56625;54.322;18.582;2023-04-01T16:59:07;6.80;;;2.00;;
69434;SDS011;56625;54.322;18.582;2023-04-01T17:02:09;10.10;;;2.40;;
69434;SDS011;56625;54.322;18.582;2023-04-01T17:07:36;8.20;;;2.40;;
69434;SDS011;56625;54.322;18.582;2023-04-01T17:14:03;8.80;;;2.40;;
69434;SDS011;56625;54.322;18.582;2023-04-01T17:23:24;7.10;;;2.00;;
69434;SDS011;56625;54.322;18.582;2023-04-01T17:26:32;8.70;;;2.20;;
69434;SDS011;56625;54.322;18.582;2023-04-01T17:29:56;7.60;;;2.70;;
69434;SDS011;56625;54.322;18.582;2023-04-01T17:44:16;7.20;;;2.30;;
69434;SDS011;56625;54.322;18.582;2023-04-01T17:47:22;6.50;;;2.00;;
69434;SDS011;56625;54.322;18.582;2023-04-01T17:56:02;7.00;;;1.80;;
69434;SDS011;56625;54.322;18.582;2023-04-01T17:58:53;8.70;;;1.90;;
69434;SDS011;56625;54.322;18.582;2023-04-01T18:04:18;9.50;;;2.30;;
69434;SDS011;56625;54.322;18.582;2023-04-01T18:07:26;7.00;;;2.20;;
69434;SDS011;56625;54.322;18.582;2023-04-01T18:19:49;6.50;;;1.90;;
69434;SDS011;56625;54.322;18.582;2023-04-01T18:22:44;8.10;;;2.20;;
69434;SDS011;56625;54.322;18.582;2023-04-01T18:25:49;8.80;;;2.40;;
69434;SDS011;56625;54.322;18.582;2023-04-01T18:36:26;8.70;;;2.20;;
69434;SDS011;56625;54.322;18.582;2023-04-01T18:39:16;6.30;;;2.00;;
69434;SDS011;56625;54.322;18.582;2023-04-01T18:45:10;8.00;;;2.20;;
69434;SDS011;56625;54.322;18.582;2023-04-01T18:51:02;6.60;;;1.90;;
69434;SDS011;56625;54.322;18.582;2023-04-01T18:53:42;7.90;;;2.30;;
69434;SDS011;56625;54.322;18.582;2023-04-01T18:56:29;7.70;;;2.00;;
69434;SDS011;56625;54.322;18.582;2023-04-01T18:59:05;6.80;;;2.00;;
69434;SDS011;56625;54.322;18.582;2023-04-01T19:01:37;8.40;;;2.00;;
69434;SDS011;56625;54.322;18.582;2023-04-01T19:04:18;8.30;;;2.10;;
69434;SDS011;56625;54.322;18.582;2023-04-01T19:06:58;6.40;;;1.90;;
69434;SDS011;56625;54.322;18.582;2023-04-01T19:09:46;5.70;;;1.60;;
69434;SDS011;56625;54.322;18.582;2023-04-01T19:16:03;8.40;;;1.70;;
69434;SDS011;56625;54.322;18.582;2023-04-01T19:19:01;6.50;;;1.60;;
69434;SDS011;56625;54.322;18.582;2023-04-01T19:21:44;6.00;;;1.70;;
69434;SDS011;56625;54.322;18.582;2023-04-01T19:24:54;6.40;;;1.70;;
69434;SDS011;56625;54.322;18.582;2023-04-01T19:27:34;8.30;;;1.90;;
69434;SDS011;56625;54.322;18.582;2023-04-01T19:36:15;7.50;;;1.90;;
69434;SDS011;56625;54.322;18.582;2023-04-01T19:39:15;5.20;;;1.80;;
69434;SDS011;56625;54.322;18.582;2023-04-01T19:42:29;6.90;;;1.90;;
69434;SDS011;56625;54.322;18.582;2023-04-01T19:45:26;5.60;;;1.70;;
69434;SDS011;56625;54.322;18.582;2023-04-01T19:48:01;6.40;;;1.30;;
69434;SDS011;56625;54.322;18.582;2023-04-01T19:50:42;6.90;;;1.70;;
69434;SDS011;56625;54.322;18.582;2023-04-01T19:56:23;5.90;;;1.70;;
69434;SDS011;56625;54.322;18.582;2023-04-01T19:59:19;5.20;;;1.20;;
69434;SDS011;56625;54.322;18.582;2023-04-01T20:02:12;6.20;;;1.30;;
69434;SDS011;56625;54.322;18.582;2023-04-01T20:04:51;7.70;;;1.30;;
69434;SDS011;56625;54.322;18.582;2023-04-01T20:10:20;6.10;;;1.50;;
69434;SDS011;56625;54.322;18.582;2023-04-01T20:15:38;6.00;;;1.50;;
69434;SDS011;56625;54.322;18.582;2023-04-01T20:18:20;7.00;;;1.30;;
69434;SDS011;56625;54.322;18.582;2023-04-01T20:26:43;7.30;;;1.50;;
69434;SDS011;56625;54.322;18.582;2023-04-01T20:29:35;7.90;;;1.70;;
69434;SDS011;56625;54.322;18.582;2023-04-01T20:41:03;7.50;;;1.30;;
69434;SDS011;56625;54.322;18.582;2023-04-01T20:44:12;5.50;;;1.00;;
69434;SDS011;56625;54.322;18.582;2023-04-01T20:46:48;6.60;;;1.40;;
69434;SDS011;56625;54.322;18.582;2023-04-01T20:49:41;4.70;;;1.30;;
69434;SDS011;56625;54.322;18.582;2023-04-01T20:57:51;6.00;;;1.20;;
69434;SDS011;56625;54.322;18.582;2023-04-01T21:00:45;5.10;;;1.40;;
69434;SDS011;56625;54.322;18.582;2023-04-01T21:04:26;6.80;;;1.50;;
69434;SDS011;56625;54.322;18.582;2023-04-01T21:09:49;5.70;;;1.50;;
69434;SDS011;56625;54.322;18.582;2023-04-01T21:15:47;7.90;;;1.60;;
69434;SDS011;56625;54.322;18.582;2023-04-01T21:40:53;5.60;;;1.60;;
69434;SDS011;56625;54.322;18.582;2023-04-01T21:58:49;6.00;;;1.30;;
69434;SDS011;56625;54.322;18.582;2023-04-01T22:04:27;4.30;;;1.00;;
69434;SDS011;56625;54.322;18.582;2023-04-01T22:07:19;4.30;;;1.00;;
69434;SDS011;56625;54.322;18.582;2023-04-01T22:13:20;5.50;;;1.50;;
69434;SDS011;56625;54.322;18.582;2023-04-01T22:16:32;6.20;;;1.30;;
69434;SDS011;56625;54.322;18.582;2023-04-01T22:19:29;5.00;;;1.20;;
69434;SDS011;56625;54.322;18.582;2023-04-01T22:22:52;6.90;;;1.40;;
69434;SDS011;56625;54.322;18.582;2023-04-01T22:25:45;4.30;;;1.10;;
69434;SDS011;56625;54.322;18.582;2023-04-01T22:28:24;5.80;;;1.50;;
69434;SDS011;56625;54.322;18.582;2023-04-01T22:31:01;4.70;;;1.20;;
69434;SDS011;56625;54.322;18.582;2023-04-01T22:36:53;4.80;;;1.10;;
69434;SDS011;56625;54.322;18.582;2023-04-01T22:40:00;5.90;;;1.20;;
69434;SDS011;56625;54.322;18.582;2023-04-01T22:42:46;5.40;;;1.10;;
69434;SDS011;56625;54.322;18.582;2023-04-01T22:48:35;4.80;;;1.20;;
69434;SDS011;56625;54.322;18.582;2023-04-01T22:51:18;6.30;;;1.30;;
69434;SDS011;56625;54.322;18.582;2023-04-01T22:54:18;4.40;;;1.10;;
69434;SDS011;56625;54.322;18.582;2023-04-01T22:57:04;5.40;;;1.00;;
69434;SDS011;56625;54.322;18.582;2023-04-01T22:59:46;5.90;;;1.20;;
69434;SDS011;56625;54.322;18.582;2023-04-01T23:02:32;5.30;;;1.10;;
69434;SDS011;56625;54.322;18.582;2023-04-01T23:05:11;5.30;;;1.50;;
69434;SDS011;56625;54.322;18.582;2023-04-01T23:10:54;6.90;;;1.50;;
69434;SDS011;56625;54.322;18.582;2023-04-01T23:13:29;6.40;;;1.50;;
69434;SDS011;56625;54.322;18.582;2023-04-01T23:16:02;4.60;;;1.20;;
69434;SDS011;56625;54.322;18.582;2023-04-01T23:18:37;6.30;;;1.50;;
69434;SDS011;56625;54.322;18.582;2023-04-01T23:21:26;5.90;;;1.50;;
69434;SDS011;56625;54.322;18.582;2023-04-01T23:24:28;6.80;;;1.50;;
69434;SDS011;56625;54.322;18.582;2023-04-01T23:27:06;6.60;;;1.30;;
69434;SDS011;56625;54.322;18.582;2023-04-01T23:29:36;6.90;;;1.30;;
69434;SDS011;56625;54.322;18.582;2023-04-01T23:32:15;6.40;;;1.20;;
69434;SDS011;56625;54.322;18.582;2023-04-01T23:34:51;5.40;;;1.00;;
69434;SDS011;56625;54.322;18.582;2023-04-01T23:37:21;5.20;;;0.80;;
69434;SDS011;56625;54.322;18.582;2023-04-01T23:39:56;5.10;;;0.90;;
69434;SDS011;56625;54.322;18.582;2023-04-01T23:42:28;4.20;;;0.80;;
69434;SDS011;56625;54.322;18.582;2023-04-01T23:45:02;4.60;;;0.90;;
69434;SDS011;56625;54.322;18.582;2023-04-01T23:47:39;5.60;;;0.90;;
69434;SDS011;56625;54.322;18.582;2023-04-01T23:50:17;4.90;;;0.90;;
69434;SDS011;56625;54.322;18.582;2023-04-01T23:52:59;2.40;;;0.50;;
69434;SDS011;56625;54.322;18.582;2023-04-01T23:55:32;4.50;;;0.50;;
